Time;durP1;ratioP1;P1;durP2;ratioP2;P2;SDS_P1;SDS_P2;PMS_P1;PMS_P2;Temp;Humidity;BMP_temperature;BMP_pressure;BME280_temperature;BME280_humidity;BME280_pressure;Samples;Min_cycle;Max_cycle;Signal;HPM_P1;HPM_P2
2023/08/20 13:04:40;;;;;;;2.90;1.42;;;;;;;;;;5353731;22;20053;-64
2023/08/20 13:07:06;;;;;;;0.80;0.80;;;;;;;;;;5047843;28;20029;-65
2023/08/20 13:09:32;;;;;;;0.60;0.60;;;;;;;;;;5047486;28;20032;-65
2023/08/20 13:12:02;;;;;;;1.10;1.05;;;;;;;;;;5073318;28;20024;-66
2023/08/20 13:14:28;;;;;;;2.85;0.77;;;;;;;;;;5048384;28;20393;-65
2023/08/20 13:16:54;;;;;;;13.15;1.55;;;;;;;;;;5052787;28;20029;-66
2023/08/20 13:19:20;;;;;;;0.50;0.50;;;;;;;;;;5039517;28;20119;-65
2023/08/20 13:21:46;;;;;;;0.20;0.20;;;;;;;;;;5052949;28;20052;-65
2023/08/20 13:24:12;;;;;;;1.48;0.88;;;;;;;;;;5042678;28;20150;-65
2023/08/20 13:26:38;;;;;;;0.20;0.20;;;;;;;;;;5053045;28;20024;-65
2023/08/20 13:29:04;;;;;;;0.95;0.80;;;;;;;;;;5045647;28;20026;-66
2023/08/20 13:31:30;;;;;;;1.15;1.05;;;;;;;;;;5036600;28;20048;-66
2023/08/20 13:33:56;;;;;;;8.38;2.28;;;;;;;;;;5052870;28;20036;-67
2023/08/20 13:36:22;;;;;;;2.78;1.83;;;;;;;;;;5034593;28;20033;-66
2023/08/20 13:38:48;;;;;;;0.57;0.57;;;;;;;;;;5032942;28;20115;-66
2023/08/20 13:41:14;;;;;;;0.98;0.70;;;;;;;;;;5051380;28;20033;-65
2023/08/20 13:43:40;;;;;;;5.60;2.97;;;;;;;;;;5048474;28;20079;-66
2023/08/20 13:46:06;;;;;;;3.92;1.92;;;;;;;;;;5035536;28;20385;-66
2023/08/20 13:48:32;;;;;;;2.70;1.30;;;;;;;;;;5064950;28;20053;-66
2023/08/20 13:50:58;;;;;;;1.40;1.30;;;;;;;;;;5039272;28;20481;-66
2023/08/20 13:53:24;;;;;;;1.05;1.02;;;;;;;;;;5032733;28;20033;-66
2023/08/20 13:55:50;;;;;;;0.30;0.30;;;;;;;;;;5033638;28;20025;-66
2023/08/20 13:58:16;;;;;;;0.43;0.43;;;;;;;;;;5032589;28;20436;-66
2023/08/20 14:00:42;;;;;;;2.72;0.85;;;;;;;;;;5049549;28;20527;-69
2023/08/20 14:03:08;;;;;;;1.27;0.93;;;;;;;;;;5044125;28;20366;-69
2023/08/20 14:05:34;;;;;;;5.82;1.15;;;;;;;;;;5034245;28;20037;-68
2023/08/20 14:08:00;;;;;;;3.17;0.98;;;;;;;;;;5052223;28;20040;-72
2023/08/20 14:10:26;;;;;;;0.73;0.73;;;;;;;;;;5049176;28;20036;-77
2023/08/20 14:12:52;;;;;;;1.42;1.17;;;;;;;;;;5052188;28;20025;-74
2023/08/20 14:15:18;;;;;;;0.40;0.40;;;;;;;;;;5034879;28;20037;-76
2023/08/20 14:17:45;;;;;;;2.28;1.10;;;;;;;;;;5041101;28;20025;-72
2023/08/20 14:20:13;;;;;;;7.03;1.13;;;;;;;;;;5052061;28;20025;-74
2023/08/20 14:22:39;;;;;;;2.42;0.52;;;;;;;;;;5041611;28;20034;-73
2023/08/20 14:25:05;;;;;;;0.20;0.20;;;;;;;;;;5036980;28;20415;-73
2023/08/20 14:27:31;;;;;;;0.30;0.30;;;;;;;;;;5040054;28;20029;-73
2023/08/20 14:29:57;;;;;;;0.32;0.30;;;;;;;;;;5046440;28;20104;-74
2023/08/20 14:32:23;;;;;;;0.30;0.30;;;;;;;;;;5057842;28;20056;-74
2023/08/20 14:34:49;;;;;;;1.20;0.70;;;;;;;;;;5047026;28;20025;-73
2023/08/20 14:37:15;;;;;;;1.08;0.98;;;;;;;;;;5054348;28;20025;-75
2023/08/20 14:39:41;;;;;;;1.58;1.30;;;;;;;;;;5050435;28;20033;-74
2023/08/20 14:42:07;;;;;;;4.13;1.67;;;;;;;;;;5040884;28;20021;-73
2023/08/20 14:44:33;;;;;;;0.30;0.30;;;;;;;;;;5044907;28;20041;-74
2023/08/20 14:46:59;;;;;;;31.77;6.03;;;;;;;;;;5056051;28;20093;-76
2023/08/20 14:49:26;;;;;;;26.08;8.00;;;;;;;;;;5053847;28;20055;-72
2023/08/20 14:51:52;;;;;;;16.23;5.00;;;;;;;;;;5055920;28;20021;-72
2023/08/20 14:54:18;;;;;;;0.55;0.55;;;;;;;;;;5053516;28;20039;-73
2023/08/20 14:56:45;;;;;;;5.90;3.08;;;;;;;;;;5052996;28;20395;-70
2023/08/20 14:59:11;;;;;;;1.50;1.35;;;;;;;;;;5054332;28;20029;-73
2023/08/20 15:01:37;;;;;;;4.20;1.92;;;;;;;;;;5054393;28;20063;-71
2023/08/20 15:04:02;;;;;;;0.57;0.57;;;;;;;;;;5051500;28;20072;-72
2023/08/20 15:06:28;;;;;;;0.75;0.75;;;;;;;;;;5055339;28;20023;-73
2023/08/20 15:08:54;;;;;;;0.52;0.35;;;;;;;;;;5053689;28;20029;-73
2023/08/20 15:11:20;;;;;;;3.13;1.08;;;;;;;;;;5047871;28;20029;-72
2023/08/20 15:13:46;;;;;;;1.45;0.77;;;;;;;;;;5036087;28;20034;-73
2023/08/20 15:16:12;;;;;;;0.68;0.68;;;;;;;;;;5034814;28;20024;-73
2023/08/20 15:18:38;;;;;;;1.80;0.93;;;;;;;;;;5036647;28;20389;-73
2023/08/20 15:21:04;;;;;;;4.72;1.55;;;;;;;;;;5036469;28;20053;-71
2023/08/20 15:23:31;;;;;;;0.20;0.20;;;;;;;;;;5046319;28;20048;-71
2023/08/20 15:25:57;;;;;;;3.38;1.23;;;;;;;;;;5050757;28;20048;-71
2023/08/20 15:28:24;;;;;;;1.55;0.85;;;;;;;;;;5051734;28;20076;-74
2023/08/20 15:30:51;;;;;;;0.30;0.30;;;;;;;;;;5047699;28;20043;-73
2023/08/20 15:33:17;;;;;;;1.52;0.82;;;;;;;;;;5054918;28;20454;-73
2023/08/20 15:35:43;;;;;;;0.50;0.50;;;;;;;;;;5053268;28;20029;-73
2023/08/20 15:38:09;;;;;;;0.73;0.70;;;;;;;;;;5054884;28;20017;-73
2023/08/20 15:40:36;;;;;;;0.30;0.30;;;;;;;;;;5051252;28;20029;-73
2023/08/20 15:43:02;;;;;;;0.77;0.70;;;;;;;;;;5054460;28;20029;-71
2023/08/20 15:45:28;;;;;;;0.20;0.20;;;;;;;;;;5052583;28;20125;-73
2023/08/20 15:47:54;;;;;;;0.47;0.47;;;;;;;;;;5053993;28;20103;-73
2023/08/20 15:50:20;;;;;;;1.15;0.45;;;;;;;;;;5047536;28;20529;-73
2023/08/20 15:52:47;;;;;;;0.03;0.03;;;;;;;;;;5034717;28;20022;-70
2023/08/20 15:55:13;;;;;;;0.05;0.05;;;;;;;;;;5049915;28;20036;-70
2023/08/20 15:57:40;;;;;;;0.98;0.82;;;;;;;;;;5054176;28;20020;-70
2023/08/20 16:00:14;;;;;;;0.47;0.45;;;;;;;;;;5041273;28;20482;-70
2023/08/20 16:02:40;;;;;;;1.27;0.47;;;;;;;;;;5034654;28;20028;-71
2023/08/20 16:05:06;;;;;;;1.25;0.77;;;;;;;;;;5035474;28;20053;-71
2023/08/20 16:07:32;;;;;;;0.55;0.52;;;;;;;;;;5043790;28;20013;-71
2023/08/20 16:09:58;;;;;;;2.13;0.90;;;;;;;;;;5052951;28;20043;-71
2023/08/20 16:12:24;;;;;;;0.40;0.40;;;;;;;;;;5047659;28;20526;-70
2023/08/20 16:14:50;;;;;;;0.30;0.30;;;;;;;;;;5041791;28;20108;-70
2023/08/20 16:17:16;;;;;;;0.73;0.52;;;;;;;;;;5034502;28;20037;-70
2023/08/20 16:19:43;;;;;;;0.38;0.38;;;;;;;;;;5039643;28;20025;-78
2023/08/20 16:22:10;;;;;;;0.30;0.30;;;;;;;;;;5052464;28;20157;-69
2023/08/20 16:24:36;;;;;;;4.45;1.55;;;;;;;;;;5053981;28;20108;-70
2023/08/20 16:27:03;;;;;;;0.98;0.82;;;;;;;;;;5051134;28;20036;-70
2023/08/20 16:29:29;;;;;;;6.70;2.03;;;;;;;;;;5053894;28;20052;-70
2023/08/20 16:31:55;;;;;;;12.55;2.88;;;;;;;;;;5052539;28;20025;-69
